createdAt,value
2022-12-31T00:00:18.024Z,24
2022-12-31T00:01:19.898Z,24
2022-12-31T00:02:21.964Z,24
2022-12-31T00:03:23.922Z,24
2022-12-31T00:04:24.791Z,25
2022-12-31T00:05:26.901Z,25
2022-12-31T00:06:28.781Z,24
2022-12-31T00:08:31.797Z,25
2022-12-31T00:09:32.786Z,25
2022-12-31T00:10:33.842Z,26
2022-12-31T00:11:35.817Z,25
2022-12-31T00:12:37.215Z,24
2022-12-31T00:13:38.854Z,23
2022-12-31T00:14:40.943Z,23
2022-12-31T00:15:42.990Z,23
2022-12-31T00:16:44.828Z,24
2022-12-31T00:17:46.967Z,24
2022-12-31T00:18:48.875Z,25
2022-12-31T00:19:50.802Z,24
2022-12-31T00:20:51.819Z,24
2022-12-31T00:21:52.776Z,24
2022-12-31T00:22:53.975Z,23
2022-12-31T00:23:55.915Z,23
2022-12-31T00:24:57.839Z,23
2022-12-31T00:25:58.876Z,23
2022-12-31T00:27:00.881Z,23
2022-12-31T00:28:02.823Z,23
2022-12-31T00:29:03.817Z,23
2022-12-31T00:30:05.919Z,23
2022-12-31T00:31:07.949Z,23
2022-12-31T00:32:09.730Z,23
2022-12-31T00:33:10.863Z,24
2022-12-31T00:34:11.881Z,23
2022-12-31T00:35:13.953Z,23
2022-12-31T00:36:16.196Z,23
2022-12-31T00:37:17.875Z,23
2022-12-31T00:38:19.955Z,22
2022-12-31T00:39:21.982Z,22
2022-12-31T00:40:23.978Z,22
2022-12-31T00:41:25.812Z,22
2022-12-31T00:42:27.935Z,23
2022-12-31T00:43:29.955Z,23
2022-12-31T00:44:31.857Z,22
2022-12-31T00:45:33.911Z,22
2022-12-31T00:47:36.848Z,22
2022-12-31T00:48:37.837Z,22
2022-12-31T00:49:38.815Z,22
2022-12-31T00:50:39.956Z,22
2022-12-31T00:51:41.843Z,22
2022-12-31T00:52:43.877Z,20
2022-12-31T00:53:45.836Z,22
2022-12-31T00:54:47.100Z,22
2022-12-31T00:55:49.002Z,22
2022-12-31T00:56:50.855Z,20
2022-12-31T00:57:52.917Z,20
2022-12-31T00:58:54.881Z,20
2022-12-31T00:59:56.839Z,20
2022-12-31T01:00:58.008Z,20
2022-12-31T01:02:00.143Z,20
2022-12-31T01:03:01.998Z,20
2022-12-31T01:04:03.916Z,22
2022-12-31T01:05:05.943Z,20
2022-12-31T01:06:07.985Z,20
2022-12-31T01:07:10.104Z,20
2022-12-31T01:08:11.858Z,20
2022-12-31T01:09:14.094Z,20
2022-12-31T01:10:16.017Z,20
2022-12-31T01:11:17.894Z,20
2022-12-31T01:12:19.953Z,22
2022-12-31T01:13:22.226Z,20
2022-12-31T01:14:23.966Z,20
2022-12-31T01:15:25.980Z,20
2022-12-31T01:16:27.976Z,22
2022-12-31T01:17:29.937Z,22
2022-12-31T01:18:31.892Z,22
2022-12-31T01:19:34.002Z,20
2022-12-31T01:20:36.016Z,20
2022-12-31T01:21:38.655Z,20
2022-12-31T01:22:40.018Z,20
2022-12-31T01:23:42.043Z,20
2022-12-31T01:24:43.833Z,19
2022-12-31T01:25:45.014Z,19
2022-12-31T01:26:46.973Z,20
2022-12-31T01:27:48.940Z,19
2022-12-31T01:28:50.912Z,19
2022-12-31T01:29:52.975Z,19
2022-12-31T01:30:54.887Z,20
2022-12-31T01:31:55.937Z,20
2022-12-31T01:32:57.854Z,20
2022-12-31T01:33:59.910Z,20
2022-12-31T01:35:02.134Z,20
2022-12-31T01:36:03.954Z,20
2022-12-31T01:37:05.835Z,19
2022-12-31T01:38:06.896Z,19
2022-12-31T01:39:08.918Z,19
2022-12-31T01:40:10.993Z,19
2022-12-31T01:41:13.003Z,19
2022-12-31T01:42:15.117Z,19
2022-12-31T01:43:17.156Z,19
2022-12-31T01:44:18.974Z,19
2022-12-31T01:45:21.171Z,19
2022-12-31T01:46:23.100Z,19
2022-12-31T01:47:24.914Z,19
2022-12-31T01:48:27.084Z,18
2022-12-31T01:49:28.943Z,18
2022-12-31T01:50:30.957Z,18
2022-12-31T01:51:33.012Z,18
2022-12-31T01:52:34.953Z,18
2022-12-31T01:53:40.677Z,18
2022-12-31T01:54:38.895Z,18
2022-12-31T01:55:41.259Z,18
2022-12-31T01:56:43.030Z,17
2022-12-31T01:57:45.021Z,17
2022-12-31T01:58:46.854Z,17
2022-12-31T01:59:47.881Z,17
2022-12-31T02:00:50.074Z,17
2022-12-31T02:01:52.065Z,16
2022-12-31T02:02:54.353Z,16
2022-12-31T02:06:54.317Z,16
2022-12-31T02:07:55.959Z,16
2022-12-31T02:08:57.948Z,16
2022-12-31T02:09:59.936Z,16
2022-12-31T02:11:02.007Z,16
2022-12-31T02:12:03.866Z,16
2022-12-31T02:13:04.894Z,16
2022-12-31T02:14:05.924Z,17
2022-12-31T02:15:06.957Z,16
2022-12-31T02:16:09.010Z,16
2022-12-31T02:17:11.021Z,16
2022-12-31T02:18:13.082Z,16
2022-12-31T02:19:14.995Z,16
2022-12-31T02:20:16.978Z,16
2022-12-31T02:21:18.874Z,16
2022-12-31T02:22:19.883Z,16
2022-12-31T02:23:20.987Z,16
2022-12-31T02:24:22.975Z,16
2022-12-31T02:25:24.881Z,16
2022-12-31T02:26:25.917Z,16
2022-12-31T02:27:27.996Z,15
2022-12-31T02:28:29.935Z,15
2022-12-31T02:29:31.974Z,15
2022-12-31T02:30:33.975Z,15
2022-12-31T02:31:35.981Z,15
2022-12-31T02:32:37.922Z,15
2022-12-31T02:33:39.914Z,16
2022-12-31T02:34:40.895Z,16
2022-12-31T02:35:42.978Z,16
2022-12-31T02:36:44.993Z,16
2022-12-31T02:37:46.960Z,16
2022-12-31T02:38:48.954Z,16
2022-12-31T02:39:50.945Z,15
2022-12-31T02:40:53.101Z,15
2022-12-31T02:41:54.873Z,15
2022-12-31T02:42:55.982Z,15
2022-12-31T02:43:56.893Z,15
2022-12-31T02:44:58.895Z,15
2022-12-31T02:45:59.897Z,15
2022-12-31T02:47:00.957Z,16
2022-12-31T02:48:02.913Z,16
2022-12-31T02:49:04.937Z,15
2022-12-31T02:50:06.978Z,15
2022-12-31T02:51:08.934Z,15
2022-12-31T02:52:10.877Z,15
2022-12-31T02:53:11.911Z,15
2022-12-31T02:54:13.998Z,16
2022-12-31T02:55:15.996Z,16
2022-12-31T02:56:17.913Z,16
2022-12-31T02:57:20.003Z,16
2022-12-31T02:58:22.052Z,15
2022-12-31T02:59:24.006Z,15
2022-12-31T03:00:26.134Z,16
2022-12-31T03:01:28.095Z,15
2022-12-31T03:02:30.083Z,15
2022-12-31T03:03:30.904Z,15
2022-12-31T03:04:31.964Z,15
2022-12-31T03:05:33.886Z,15
2022-12-31T03:06:35.016Z,15
2022-12-31T03:07:36.937Z,16
2022-12-31T03:08:38.885Z,16
2022-12-31T03:09:39.933Z,16
2022-12-31T03:10:41.923Z,16
2022-12-31T03:11:44.033Z,17
2022-12-31T03:12:45.934Z,17
2022-12-31T03:13:47.889Z,17
2022-12-31T03:14:49.984Z,16
2022-12-31T03:15:52.052Z,16
2022-12-31T03:16:54.382Z,16
2022-12-31T03:17:55.960Z,16
2022-12-31T03:18:57.863Z,16
2022-12-31T03:19:58.886Z,16
2022-12-31T03:20:59.894Z,16
2022-12-31T03:22:00.995Z,16
2022-12-31T03:23:02.899Z,16
2022-12-31T03:24:04.003Z,16
2022-12-31T03:25:05.917Z,16
2022-12-31T03:26:06.999Z,16
2022-12-31T03:27:08.957Z,16
2022-12-31T03:28:11.016Z,16
2022-12-31T03:29:12.899Z,16
2022-12-31T03:30:13.995Z,16
2022-12-31T03:31:16.018Z,16
2022-12-31T03:32:18.013Z,16
2022-12-31T03:33:19.981Z,16
2022-12-31T03:34:22.054Z,16
2022-12-31T03:35:23.993Z,16
2022-12-31T03:36:25.980Z,16
2022-12-31T03:37:28.001Z,16
2022-12-31T03:38:30.078Z,16
2022-12-31T03:39:31.996Z,16
2022-12-31T03:40:34.328Z,16
2022-12-31T03:41:35.976Z,16
2022-12-31T03:42:37.934Z,16
2022-12-31T03:43:38.974Z,16
2022-12-31T03:44:40.916Z,16
2022-12-31T03:45:42.921Z,16
2022-12-31T03:46:44.994Z,16
2022-12-31T03:47:46.936Z,16
2022-12-31T03:48:48.938Z,16
2022-12-31T03:49:50.982Z,16
2022-12-31T03:50:53.003Z,16
2022-12-31T03:51:55.019Z,16
2022-12-31T03:52:56.974Z,16
2022-12-31T03:53:59.035Z,16
2022-12-31T03:55:00.969Z,16
2022-12-31T03:56:02.976Z,16
2022-12-31T03:57:04.986Z,16
2022-12-31T03:58:06.975Z,16
2022-12-31T03:59:09.055Z,17
2022-12-31T04:00:10.993Z,17
2022-12-31T04:01:13.063Z,17
2022-12-31T04:02:15.167Z,17
2022-12-31T04:03:17.137Z,18
2022-12-31T04:04:19.057Z,18
2022-12-31T04:05:20.920Z,18
2022-12-31T04:06:21.878Z,18
2022-12-31T04:07:22.981Z,18
2022-12-31T04:08:24.982Z,17
2022-12-31T04:09:26.985Z,17
2022-12-31T04:10:29.081Z,18
2022-12-31T04:11:31.114Z,18
2022-12-31T04:12:33.018Z,17
2022-12-31T04:13:35.017Z,17
2022-12-31T04:14:36.976Z,18
2022-12-31T04:15:39.034Z,18
2022-12-31T04:16:40.982Z,17
2022-12-31T04:17:43.140Z,17
2022-12-31T04:18:45.011Z,17
2022-12-31T04:19:47.007Z,17
2022-12-31T04:20:49.015Z,17
2022-12-31T04:21:51.015Z,17
2022-12-31T04:22:53.374Z,17
2022-12-31T04:23:54.958Z,17
2022-12-31T04:24:55.925Z,17
2022-12-31T04:25:56.987Z,17
2022-12-31T04:27:02.196Z,17
2022-12-31T04:27:59.971Z,17
2022-12-31T04:29:02.039Z,17
2022-12-31T04:30:04.015Z,17
2022-12-31T04:31:06.068Z,17
2022-12-31T04:32:08.009Z,17
2022-12-31T04:33:09.001Z,17
2022-12-31T04:34:11.015Z,17
2022-12-31T04:35:12.998Z,17
2022-12-31T04:36:15.016Z,17
2022-12-31T04:37:17.040Z,17
2022-12-31T04:38:19.194Z,17
2022-12-31T04:39:20.997Z,17
2022-12-31T04:40:23.038Z,17
2022-12-31T04:41:25.539Z,17
2022-12-31T04:42:27.096Z,17
2022-12-31T04:43:29.591Z,17
2022-12-31T04:44:31.018Z,17
2022-12-31T04:45:33.078Z,16
2022-12-31T04:46:34.983Z,16
2022-12-31T04:47:37.020Z,16
2022-12-31T04:48:38.995Z,16
2022-12-31T04:49:41.050Z,16
2022-12-31T04:50:48.136Z,16
2022-12-31T04:51:49.984Z,16
2022-12-31T04:52:52.062Z,16
2022-12-31T04:53:54.037Z,16
2022-12-31T04:54:56.005Z,16
2022-12-31T04:55:57.956Z,16
2022-12-31T04:57:00.042Z,16
2022-12-31T04:58:02.037Z,16
2022-12-31T04:59:04.115Z,16
2022-12-31T05:00:06.204Z,16
2022-12-31T05:01:08.045Z,16
2022-12-31T05:02:10.163Z,17
2022-12-31T05:03:12.010Z,17
2022-12-31T05:04:13.975Z,17
2022-12-31T05:05:16.076Z,17
2022-12-31T05:06:17.998Z,17
2022-12-31T05:07:20.037Z,17
2022-12-31T05:08:22.003Z,17
2022-12-31T05:09:24.112Z,17
2022-12-31T05:10:25.968Z,17
2022-12-31T05:11:26.956Z,17
2022-12-31T05:12:29.038Z,17
2022-12-31T05:13:33.277Z,17
2022-12-31T05:14:31.955Z,17
2022-12-31T05:15:33.982Z,16
2022-12-31T05:16:36.030Z,16
2022-12-31T05:17:38.035Z,17
2022-12-31T05:18:39.996Z,17
2022-12-31T05:19:42.076Z,17
2022-12-31T05:20:44.016Z,16
2022-12-31T05:21:46.076Z,16
2022-12-31T05:22:47.936Z,16
2022-12-31T05:23:48.931Z,16
2022-12-31T05:24:49.953Z,16
2022-12-31T05:25:51.058Z,16
2022-12-31T05:26:53.016Z,16
2022-12-31T05:27:55.023Z,16
2022-12-31T05:28:57.061Z,16
2022-12-31T05:29:58.960Z,16
2022-12-31T05:31:00.086Z,16
2022-12-31T05:32:01.695Z,17
2022-12-31T05:33:03.323Z,16
2022-12-31T05:34:05.000Z,17
2022-12-31T05:35:07.059Z,16
2022-12-31T05:36:08.969Z,16
2022-12-31T05:37:09.925Z,16
2022-12-31T05:38:11.004Z,17
2022-12-31T05:39:13.258Z,17
2022-12-31T05:40:15.035Z,17
2022-12-31T05:41:17.063Z,17
2022-12-31T05:42:19.044Z,17
2022-12-31T05:43:20.993Z,16
2022-12-31T05:44:22.018Z,16
2022-12-31T05:45:30.286Z,16
2022-12-31T05:46:26.031Z,16
2022-12-31T05:47:28.017Z,16
2022-12-31T05:48:30.079Z,16
2022-12-31T05:49:32.215Z,16
2022-12-31T05:50:34.121Z,17
2022-12-31T05:51:36.063Z,17
2022-12-31T05:52:38.880Z,17
2022-12-31T05:53:40.283Z,17
2022-12-31T05:54:42.125Z,17
2022-12-31T05:55:44.056Z,17
2022-12-31T05:56:46.041Z,17
2022-12-31T05:57:48.076Z,17
2022-12-31T05:58:50.202Z,17
2022-12-31T05:59:52.204Z,17
2022-12-31T06:00:53.995Z,17
2022-12-31T06:01:56.023Z,17
2022-12-31T06:02:58.225Z,17
2022-12-31T06:04:00.219Z,17
2022-12-31T06:05:02.099Z,17
2022-12-31T06:06:04.056Z,17
2022-12-31T06:07:06.096Z,18
2022-12-31T06:08:08.015Z,17
2022-12-31T06:09:09.074Z,17
2022-12-31T06:10:11.016Z,17
2022-12-31T06:11:13.147Z,17
2022-12-31T06:12:15.039Z,17
2022-12-31T06:13:17.087Z,17
2022-12-31T06:14:19.122Z,17
2022-12-31T06:15:21.056Z,18
2022-12-31T06:16:23.156Z,18
2022-12-31T06:17:24.999Z,18
2022-12-31T06:18:26.979Z,18
2022-12-31T06:19:28.014Z,18
2022-12-31T06:20:30.995Z,17
2022-12-31T06:21:32.097Z,17
2022-12-31T06:22:34.034Z,17
2022-12-31T06:23:36.155Z,17
2022-12-31T06:24:38.039Z,17
2022-12-31T06:25:40.119Z,17
2022-12-31T06:26:42.036Z,18
2022-12-31T06:27:44.003Z,18
2022-12-31T06:28:46.013Z,18
2022-12-31T06:29:48.122Z,18
2022-12-31T06:30:50.219Z,18
2022-12-31T06:31:52.036Z,18
2022-12-31T06:32:53.995Z,19
2022-12-31T06:33:55.997Z,18
2022-12-31T06:34:57.054Z,19
2022-12-31T06:35:59.501Z,19
2022-12-31T06:37:01.022Z,19
2022-12-31T06:38:03.044Z,19
2022-12-31T06:39:05.035Z,19
2022-12-31T06:40:07.195Z,19
2022-12-31T06:41:09.156Z,19
2022-12-31T06:42:11.035Z,19
2022-12-31T06:43:13.135Z,19
2022-12-31T06:44:15.039Z,18
2022-12-31T06:45:17.198Z,18
2022-12-31T06:46:19.006Z,19
2022-12-31T06:47:20.035Z,19
2022-12-31T06:48:22.455Z,18
2022-12-31T06:49:24.096Z,18
2022-12-31T06:50:26.100Z,19
2022-12-31T06:51:28.116Z,19
2022-12-31T06:52:30.038Z,19
2022-12-31T06:53:31.096Z,19
2022-12-31T06:54:33.175Z,19
2022-12-31T06:55:34.997Z,19
2022-12-31T06:56:36.451Z,19
2022-12-31T06:57:38.161Z,19
2022-12-31T06:58:40.034Z,19
2022-12-31T06:59:42.082Z,19
2022-12-31T07:00:44.178Z,19
2022-12-31T07:01:46.520Z,19
2022-12-31T07:02:48.394Z,19
2022-12-31T07:03:50.052Z,19
2022-12-31T07:04:52.182Z,19
2022-12-31T07:05:54.041Z,19
2022-12-31T07:06:56.059Z,19
2022-12-31T07:07:58.077Z,19
2022-12-31T07:09:00.328Z,19
2022-12-31T07:10:02.157Z,19
2022-12-31T07:11:04.012Z,19
2022-12-31T07:12:06.033Z,19
2022-12-31T07:13:07.473Z,19
2022-12-31T07:14:09.121Z,19
2022-12-31T07:15:11.055Z,19
2022-12-31T07:16:13.191Z,19
2022-12-31T07:17:15.115Z,18
2022-12-31T07:18:17.124Z,18
2022-12-31T07:19:19.060Z,18
2022-12-31T07:20:21.063Z,18
2022-12-31T07:21:23.137Z,19
2022-12-31T07:22:25.115Z,19
2022-12-31T07:23:27.097Z,18
2022-12-31T07:24:29.013Z,19
2022-12-31T07:25:30.158Z,19
2022-12-31T07:26:32.179Z,20
2022-12-31T07:27:34.081Z,20
2022-12-31T07:28:36.084Z,20
2022-12-31T07:29:38.084Z,20
2022-12-31T07:30:40.135Z,20
2022-12-31T07:31:42.141Z,21
2022-12-31T07:32:44.035Z,20
2022-12-31T07:33:45.075Z,20
2022-12-31T07:34:47.128Z,19
2022-12-31T07:35:49.097Z,19
2022-12-31T07:36:51.088Z,19
2022-12-31T07:37:53.144Z,19
2022-12-31T07:38:55.117Z,19
2022-12-31T07:39:57.059Z,19
2022-12-31T07:41:00.608Z,19
2022-12-31T07:42:01.888Z,19
2022-12-31T07:43:03.080Z,19
2022-12-31T07:44:05.153Z,19
2022-12-31T07:45:07.117Z,19
2022-12-31T07:46:09.261Z,19
2022-12-31T07:47:11.110Z,19
2022-12-31T07:48:13.068Z,18
2022-12-31T07:49:15.077Z,18
2022-12-31T07:50:17.135Z,19
2022-12-31T07:51:19.175Z,19
2022-12-31T07:52:21.236Z,19
2022-12-31T07:53:23.159Z,19
2022-12-31T07:54:25.120Z,19
2022-12-31T07:55:27.355Z,19
2022-12-31T07:56:29.184Z,19
2022-12-31T07:57:31.145Z,18
2022-12-31T07:58:33.158Z,18
2022-12-31T07:59:35.055Z,18
2022-12-31T08:00:37.158Z,18
2022-12-31T08:01:39.279Z,18
2022-12-31T08:02:41.235Z,18
2022-12-31T08:03:43.066Z,18
2022-12-31T08:04:45.075Z,18
2022-12-31T08:05:47.102Z,18
2022-12-31T08:06:49.081Z,18
2022-12-31T08:07:51.075Z,18
2022-12-31T08:08:52.202Z,18
2022-12-31T08:09:55.027Z,18
2022-12-31T08:10:57.515Z,18
2022-12-31T08:11:59.158Z,18
2022-12-31T08:13:01.295Z,18
2022-12-31T08:14:03.131Z,17
2022-12-31T08:15:05.174Z,17
2022-12-31T08:16:07.267Z,17
2022-12-31T08:17:09.162Z,17
2022-12-31T08:18:11.185Z,17
2022-12-31T08:19:13.135Z,17
2022-12-31T08:20:15.583Z,18
2022-12-31T08:21:17.100Z,18
2022-12-31T08:22:19.201Z,17
2022-12-31T08:23:21.071Z,17
2022-12-31T08:24:22.175Z,17
2022-12-31T08:25:24.239Z,17
2022-12-31T08:26:26.060Z,18
2022-12-31T08:27:28.475Z,18
2022-12-31T08:28:30.137Z,17
2022-12-31T08:29:32.047Z,17
2022-12-31T08:30:33.122Z,17
2022-12-31T08:31:35.191Z,17
2022-12-31T08:32:37.117Z,18
2022-12-31T08:33:39.143Z,17
2022-12-31T08:34:41.202Z,17
2022-12-31T08:35:43.076Z,17
2022-12-31T08:36:45.150Z,17
2022-12-31T08:37:47.163Z,17
2022-12-31T08:38:49.105Z,17
2022-12-31T08:39:51.162Z,17
2022-12-31T08:40:53.121Z,17
2022-12-31T08:41:55.036Z,17
2022-12-31T08:42:56.094Z,17
2022-12-31T08:43:58.106Z,18
2022-12-31T08:45:00.196Z,17
2022-12-31T08:46:02.240Z,17
2022-12-31T08:47:04.046Z,18
2022-12-31T08:48:05.142Z,17
2022-12-31T08:49:07.140Z,17
2022-12-31T08:50:09.205Z,17
2022-12-31T08:51:11.200Z,17
2022-12-31T08:52:13.113Z,17
2022-12-31T08:53:15.146Z,17
2022-12-31T08:54:17.110Z,17
2022-12-31T08:55:19.075Z,18
2022-12-31T08:56:20.239Z,17
2022-12-31T08:57:22.183Z,18
2022-12-31T08:58:24.582Z,18
2022-12-31T08:59:26.437Z,18
2022-12-31T09:00:28.319Z,17
2022-12-31T09:01:30.360Z,17
2022-12-31T09:02:32.164Z,17
2022-12-31T09:03:34.132Z,17
2022-12-31T09:04:36.317Z,18
2022-12-31T09:05:38.095Z,18
2022-12-31T09:06:40.156Z,17
2022-12-31T09:07:43.182Z,17
2022-12-31T09:08:45.329Z,17
2022-12-31T09:09:48.076Z,17
2022-12-31T09:10:50.117Z,17
2022-12-31T09:11:52.213Z,17
2022-12-31T09:12:54.155Z,17
2022-12-31T09:13:56.173Z,17
2022-12-31T09:14:58.189Z,17
2022-12-31T09:16:00.125Z,17
2022-12-31T09:17:01.198Z,17
2022-12-31T09:18:03.239Z,17
2022-12-31T09:19:05.115Z,16
2022-12-31T09:20:06.197Z,17
2022-12-31T09:21:08.135Z,17
2022-12-31T09:22:12.836Z,17
2022-12-31T09:23:14.129Z,17
2022-12-31T09:24:16.214Z,17
2022-12-31T09:25:18.195Z,17
2022-12-31T09:26:20.258Z,17
2022-12-31T09:27:27.380Z,3
2022-12-31T09:28:24.216Z,3
2022-12-31T09:29:26.116Z,3
2022-12-31T09:30:28.144Z,3
2022-12-31T09:31:30.153Z,3
2022-12-31T09:32:32.295Z,4
2022-12-31T09:33:34.437Z,3
2022-12-31T09:34:36.585Z,3
2022-12-31T09:35:39.063Z,3
2022-12-31T09:36:40.137Z,3
2022-12-31T09:37:42.251Z,3
2022-12-31T09:38:44.277Z,3
2022-12-31T09:39:46.202Z,3
2022-12-31T09:40:48.683Z,3
2022-12-31T09:41:50.374Z,3
2022-12-31T09:42:52.271Z,3
2022-12-31T09:43:57.426Z,3
2022-12-31T09:44:56.127Z,4
2022-12-31T09:45:57.159Z,3
2022-12-31T09:46:59.135Z,3
2022-12-31T09:48:01.226Z,3
2022-12-31T09:49:03.174Z,3
2022-12-31T09:50:05.177Z,3
2022-12-31T09:51:07.224Z,3
2022-12-31T09:52:09.216Z,3
2022-12-31T09:53:11.195Z,3
2022-12-31T09:54:13.071Z,4
2022-12-31T09:55:15.165Z,3
2022-12-31T09:56:18.158Z,5
2022-12-31T09:57:20.220Z,5
2022-12-31T09:58:22.069Z,4
2022-12-31T09:59:23.100Z,4
2022-12-31T10:00:24.158Z,4
2022-12-31T10:01:26.378Z,4
2022-12-31T10:02:28.302Z,4
2022-12-31T10:03:30.146Z,4
2022-12-31T10:04:31.171Z,4
2022-12-31T10:05:33.219Z,4
2022-12-31T10:06:35.331Z,4
2022-12-31T10:07:37.276Z,4
2022-12-31T10:08:39.339Z,3
2022-12-31T10:09:41.128Z,3
2022-12-31T10:10:42.103Z,3
2022-12-31T10:11:43.101Z,3
2022-12-31T10:12:44.059Z,3
2022-12-31T10:13:45.622Z,3
2022-12-31T10:14:47.787Z,4
2022-12-31T10:15:49.167Z,4
2022-12-31T10:16:51.247Z,4
2022-12-31T10:17:53.255Z,4
2022-12-31T10:18:55.180Z,4
2022-12-31T10:19:57.299Z,4
2022-12-31T10:20:59.256Z,5
2022-12-31T10:22:01.226Z,5
2022-12-31T10:23:03.171Z,5
2022-12-31T10:24:05.160Z,5
2022-12-31T10:25:06.175Z,4
2022-12-31T10:26:08.276Z,5
2022-12-31T10:27:10.905Z,5
2022-12-31T10:28:12.237Z,5
2022-12-31T10:29:14.178Z,4
2022-12-31T10:30:16.248Z,4
2022-12-31T10:31:18.274Z,5
2022-12-31T10:32:20.155Z,5
2022-12-31T10:33:22.144Z,5
2022-12-31T10:34:24.356Z,5
2022-12-31T10:35:26.068Z,4
2022-12-31T10:36:27.253Z,4
2022-12-31T10:37:29.309Z,4
2022-12-31T10:38:31.236Z,4
2022-12-31T10:39:33.207Z,4
2022-12-31T10:40:35.275Z,4
2022-12-31T10:41:37.139Z,4
2022-12-31T10:42:39.186Z,3
2022-12-31T10:43:41.297Z,4
2022-12-31T10:44:43.196Z,4
2022-12-31T10:45:45.621Z,3
2022-12-31T10:46:47.909Z,4
2022-12-31T10:47:49.415Z,4
2022-12-31T10:48:51.498Z,5
2022-12-31T10:49:53.166Z,4
2022-12-31T10:50:55.168Z,5
2022-12-31T10:51:57.635Z,5
2022-12-31T10:53:00.161Z,6
2022-12-31T10:54:01.194Z,5
2022-12-31T10:55:03.138Z,5
2022-12-31T10:56:04.242Z,5
2022-12-31T10:57:06.156Z,5
2022-12-31T10:58:07.166Z,4
2022-12-31T10:59:09.816Z,5
2022-12-31T11:00:11.296Z,4
2022-12-31T11:01:13.214Z,4
2022-12-31T11:02:14.424Z,5
2022-12-31T11:03:16.188Z,4
2022-12-31T11:04:18.200Z,4
2022-12-31T11:05:20.228Z,5
2022-12-31T11:06:22.179Z,4
2022-12-31T11:07:24.160Z,4
2022-12-31T11:08:26.255Z,4
2022-12-31T11:09:32.792Z,4
2022-12-31T11:10:30.243Z,4
2022-12-31T11:11:32.295Z,4
2022-12-31T11:12:34.206Z,4
2022-12-31T11:13:36.318Z,4
2022-12-31T11:14:38.124Z,4
2022-12-31T11:15:39.192Z,4
2022-12-31T11:16:40.143Z,4
2022-12-31T11:17:41.659Z,4
2022-12-31T11:18:43.376Z,3
2022-12-31T11:19:45.219Z,4
2022-12-31T11:20:47.213Z,3
2022-12-31T11:21:49.200Z,3
2022-12-31T11:22:51.140Z,3
2022-12-31T11:23:52.284Z,3
2022-12-31T11:24:54.239Z,3
2022-12-31T11:25:56.458Z,3
2022-12-31T11:26:58.236Z,3
2022-12-31T11:28:00.234Z,4
2022-12-31T11:29:02.379Z,3
2022-12-31T11:30:04.234Z,4
2022-12-31T11:31:06.367Z,4
2022-12-31T11:32:08.322Z,4
2022-12-31T11:33:10.279Z,4
2022-12-31T11:34:12.284Z,3
2022-12-31T11:35:14.336Z,3
2022-12-31T11:36:16.255Z,3
2022-12-31T11:37:18.181Z,3
2022-12-31T11:38:20.235Z,3
2022-12-31T11:39:27.399Z,3
2022-12-31T11:40:24.327Z,3
2022-12-31T11:41:26.232Z,3
2022-12-31T11:42:28.299Z,3
2022-12-31T11:43:30.555Z,4
2022-12-31T11:44:32.280Z,4
2022-12-31T11:45:34.166Z,4
2022-12-31T11:46:36.293Z,4
2022-12-31T11:47:56.475Z,4
2022-12-31T11:48:40.207Z,4
2022-12-31T11:49:42.573Z,4
2022-12-31T11:50:44.228Z,4
2022-12-31T11:51:50.314Z,3
2022-12-31T11:52:48.715Z,3
2022-12-31T11:53:50.183Z,4
2022-12-31T11:54:52.247Z,4
2022-12-31T11:55:54.312Z,4
2022-12-31T11:56:56.348Z,4
2022-12-31T11:57:58.416Z,4
2022-12-31T11:59:02.510Z,4
2022-12-31T12:00:02.220Z,4
2022-12-31T12:01:04.988Z,4
2022-12-31T12:02:06.264Z,4
2022-12-31T12:03:08.318Z,3
2022-12-31T12:04:10.630Z,3
2022-12-31T12:05:12.146Z,3
2022-12-31T12:06:14.235Z,4
2022-12-31T12:07:16.175Z,4
2022-12-31T12:08:18.280Z,4
2022-12-31T12:09:20.171Z,4
2022-12-31T12:10:22.397Z,4
2022-12-31T12:11:24.312Z,4
2022-12-31T12:12:26.241Z,5
2022-12-31T12:13:28.463Z,4
2022-12-31T12:14:30.719Z,3
2022-12-31T12:15:32.224Z,3
2022-12-31T12:16:34.297Z,3
2022-12-31T12:17:36.336Z,3
2022-12-31T12:18:38.518Z,3
2022-12-31T12:19:40.316Z,3
2022-12-31T12:20:44.855Z,3
2022-12-31T12:21:46.246Z,4
2022-12-31T12:22:49.555Z,4
2022-12-31T12:23:50.253Z,3
2022-12-31T12:24:52.246Z,3
2022-12-31T12:25:55.022Z,3
2022-12-31T12:26:56.496Z,2
2022-12-31T12:27:58.274Z,2
2022-12-31T12:29:00.205Z,3
2022-12-31T12:30:02.836Z,2
2022-12-31T12:31:04.380Z,3
2022-12-31T12:32:06.217Z,4
2022-12-31T12:33:08.319Z,4
2022-12-31T12:34:10.255Z,3
2022-12-31T12:35:12.215Z,4
2022-12-31T12:36:13.207Z,4
2022-12-31T12:37:15.097Z,3
2022-12-31T12:38:16.440Z,4
2022-12-31T12:39:18.369Z,4
2022-12-31T12:40:20.230Z,4
2022-12-31T12:41:22.684Z,4
2022-12-31T12:42:24.345Z,5
2022-12-31T12:43:26.264Z,5
2022-12-31T12:44:28.271Z,4
2022-12-31T12:45:30.785Z,4
2022-12-31T12:46:32.387Z,4
2022-12-31T12:47:34.417Z,4
2022-12-31T12:48:36.336Z,4
2022-12-31T12:49:38.622Z,4
2022-12-31T12:50:40.316Z,4
2022-12-31T12:51:42.216Z,4
2022-12-31T12:52:44.154Z,3
2022-12-31T12:53:46.219Z,3
2022-12-31T12:54:48.237Z,4
2022-12-31T12:55:50.275Z,4
2022-12-31T12:56:52.299Z,4
2022-12-31T12:57:55.181Z,4
2022-12-31T12:58:56.482Z,4
2022-12-31T12:59:58.275Z,4
2022-12-31T13:01:00.397Z,4
2022-12-31T13:02:02.593Z,4
2022-12-31T13:03:04.398Z,3
2022-12-31T13:04:35.876Z,3
2022-12-31T13:05:08.363Z,3
2022-12-31T13:06:10.237Z,3
2022-12-31T13:07:12.289Z,3
2022-12-31T13:08:14.279Z,4
2022-12-31T13:09:16.233Z,4
2022-12-31T13:10:18.306Z,4
2022-12-31T13:11:20.207Z,3
2022-12-31T13:12:22.341Z,4
2022-12-31T13:13:25.326Z,4
2022-12-31T13:14:26.331Z,4
2022-12-31T13:15:28.299Z,4
2022-12-31T13:16:30.305Z,4
2022-12-31T13:17:32.259Z,4
2022-12-31T13:18:34.268Z,4
2022-12-31T13:19:36.280Z,3
2022-12-31T13:20:38.288Z,3
2022-12-31T13:21:40.295Z,3
2022-12-31T13:22:42.262Z,3
2022-12-31T13:23:44.434Z,3
2022-12-31T13:24:46.935Z,3
2022-12-31T13:25:48.277Z,3
2022-12-31T13:26:50.240Z,4
2022-12-31T13:27:52.581Z,4
2022-12-31T13:28:54.295Z,4
2022-12-31T13:29:56.743Z,4
2022-12-31T13:31:01.826Z,4
2022-12-31T13:31:59.238Z,4
2022-12-31T13:33:01.271Z,4
2022-12-31T13:34:03.447Z,4
2022-12-31T13:35:05.238Z,5
2022-12-31T13:36:06.226Z,4
2022-12-31T13:37:08.315Z,4
2022-12-31T13:38:10.255Z,4
2022-12-31T13:39:12.374Z,5
2022-12-31T13:40:14.333Z,5
2022-12-31T13:41:16.326Z,4
2022-12-31T13:42:18.191Z,4
2022-12-31T13:43:19.235Z,4
2022-12-31T13:44:20.243Z,5
2022-12-31T13:45:21.735Z,5
2022-12-31T13:46:23.264Z,5
2022-12-31T13:47:25.394Z,5
2022-12-31T13:48:27.242Z,4
2022-12-31T13:49:28.235Z,4
2022-12-31T13:50:30.253Z,5
2022-12-31T13:51:32.373Z,4
2022-12-31T13:52:34.275Z,4
2022-12-31T13:53:36.334Z,4
2022-12-31T13:54:38.334Z,4
2022-12-31T13:55:40.394Z,4
2022-12-31T13:56:42.308Z,4
2022-12-31T13:57:44.275Z,4
2022-12-31T13:58:45.317Z,4
2022-12-31T13:59:47.297Z,4
2022-12-31T14:00:49.331Z,4
2022-12-31T14:01:51.499Z,4
2022-12-31T14:02:53.374Z,5
2022-12-31T14:03:55.170Z,5
2022-12-31T14:04:56.559Z,4
2022-12-31T14:05:58.284Z,4
2022-12-31T14:06:59.200Z,5
2022-12-31T14:08:00.225Z,5
2022-12-31T14:09:01.241Z,5
2022-12-31T14:10:03.258Z,6
2022-12-31T14:11:04.268Z,5
2022-12-31T14:12:06.202Z,5
2022-12-31T14:13:07.245Z,5
2022-12-31T14:14:09.255Z,5
2022-12-31T14:15:11.244Z,5
2022-12-31T14:16:13.396Z,5
2022-12-31T14:17:15.252Z,5
2022-12-31T14:18:16.185Z,5
2022-12-31T14:19:17.254Z,5
2022-12-31T14:20:18.233Z,5
2022-12-31T14:21:19.207Z,5
2022-12-31T14:22:20.220Z,5
2022-12-31T14:23:21.293Z,5
2022-12-31T14:24:23.208Z,5
2022-12-31T14:25:25.362Z,5
2022-12-31T14:26:27.294Z,5
2022-12-31T14:27:29.251Z,6
2022-12-31T14:28:31.698Z,6
2022-12-31T14:29:33.511Z,5
2022-12-31T14:30:35.231Z,6
2022-12-31T14:31:36.276Z,5
2022-12-31T14:32:39.404Z,5
2022-12-31T14:33:41.868Z,4
2022-12-31T14:34:43.256Z,4
2022-12-31T14:35:45.237Z,5
2022-12-31T14:36:46.219Z,5
2022-12-31T14:37:47.310Z,5
2022-12-31T14:38:48.357Z,5
2022-12-31T14:39:50.268Z,5
2022-12-31T14:40:52.356Z,5
2022-12-31T14:41:54.256Z,6
2022-12-31T14:42:56.785Z,5
2022-12-31T14:43:58.497Z,5
2022-12-31T14:45:00.330Z,5
2022-12-31T14:46:02.392Z,5
2022-12-31T14:47:04.329Z,5
2022-12-31T14:48:06.340Z,5
2022-12-31T14:49:08.297Z,5
2022-12-31T14:50:10.260Z,5
2022-12-31T14:51:11.249Z,5
2022-12-31T14:52:13.323Z,5
2022-12-31T14:53:16.298Z,5
2022-12-31T14:54:18.914Z,6
2022-12-31T14:55:20.346Z,6
2022-12-31T14:56:22.262Z,6
2022-12-31T14:57:23.284Z,6
2022-12-31T14:58:28.574Z,6
2022-12-31T14:59:26.241Z,5